Terminal Aerodrome Forecast
Issued by NWS Boston, MA

Current Version | Previous Version | Text Only | Print | Product List | Glossary On
Versions: 1 2 3 4 5 6 7 8 9 10 11 12 13 14 15 16 17 18 19 20 21 22 23 24 25 26 27 28 29 30 31 32 33 34 35 36 37
000
FTUS41 KBOX 221422 AAB
TAFORH
TAF AMD
KORH 221422Z 2214/2312 03005KT P6SM OVC004
     FM221500 04006KT P6SM OVC015
     FM221800 07005KT P6SM OVC040
     FM230600 01004KT P6SM BKN080
     FM230800 01005KT P6SM BKN010=

USA.gov is the U.S. government's official web portal to all federal, state and local government web resources and services.